createdAt,value
2022-10-17T00:01:16.131Z,52.80
2022-10-17T00:04:19.932Z,53.65
2022-10-17T00:07:23.157Z,59.03
2022-10-17T00:10:26.788Z,56.15
2022-10-17T00:13:29.936Z,59.97
2022-10-17T00:16:37.511Z,58.33
2022-10-17T00:19:40.542Z,54.42
2022-10-17T00:22:44.002Z,51.70
2022-10-17T00:25:47.031Z,52.17
2022-10-17T00:28:51.879Z,56.45
2022-10-17T00:31:58.109Z,52.62
2022-10-17T00:35:01.973Z,54.78
2022-10-17T00:38:05.034Z,59.80
2022-10-17T00:41:10.453Z,55.25
2022-10-17T00:44:31.699Z,57.30
2022-10-17T00:47:37.112Z,53.85
2022-10-17T00:50:43.172Z,52.47
2022-10-17T00:53:46.977Z,49.88
2022-10-17T00:56:50.696Z,54.78
2022-10-17T00:59:57.860Z,46.95
2022-10-17T01:03:01.092Z,44.37
2022-10-17T01:06:04.358Z,49.53
2022-10-17T01:09:07.490Z,54.03
2022-10-17T01:12:10.720Z,54.70
2022-10-17T01:15:51.712Z,57.90
2022-10-17T01:19:03.866Z,53.70
2022-10-17T01:22:15.411Z,53.25
2022-10-17T01:25:43.206Z,54.40
2022-10-17T01:29:12.758Z,49.23
2022-10-17T01:32:34.559Z,48.65
2022-10-17T01:35:43.719Z,42.95
2022-10-17T01:38:56.625Z,52.88
2022-10-17T01:42:11.695Z,45.07
2022-10-17T01:45:21.613Z,47.92
2022-10-17T01:48:32.233Z,43.17
2022-10-17T01:51:44.867Z,47.90
2022-10-17T01:54:54.400Z,47.23
2022-10-17T01:58:10.279Z,52.38
2022-10-17T02:01:14.012Z,46.92
2022-10-17T02:04:17.762Z,45.50
2022-10-17T02:07:20.812Z,50.23
2022-10-17T02:10:44.729Z,45.97
2022-10-17T02:14:19.934Z,50.00
2022-10-17T02:17:43.522Z,51.55
2022-10-17T02:21:02.187Z,56.20
2022-10-17T02:24:27.116Z,47.13
2022-10-17T02:27:54.622Z,49.10
2022-10-17T02:31:06.898Z,44.13
2022-10-17T02:34:18.684Z,46.90
2022-10-17T02:37:27.677Z,49.20
2022-10-17T02:40:32.016Z,47.58
2022-10-17T02:43:37.144Z,45.13
2022-10-17T02:46:45.232Z,47.17
2022-10-17T02:49:52.232Z,44.53
2022-10-17T02:53:02.276Z,49.85
2022-10-17T02:56:17.239Z,42.33
2022-10-17T02:59:22.819Z,48.17
2022-10-17T03:02:26.948Z,39.97
2022-10-17T03:05:31.398Z,45.40
2022-10-17T03:08:35.462Z,55.45
2022-10-17T03:11:39.456Z,50.22
2022-10-17T03:14:43.175Z,44.55
2022-10-17T03:17:46.627Z,48.30
2022-10-17T03:20:51.400Z,49.95
2022-10-17T03:23:54.871Z,44.67
2022-10-17T03:26:58.265Z,44.30
2022-10-17T03:30:01.869Z,45.97
2022-10-17T03:33:06.952Z,45.83
2022-10-17T03:36:13.400Z,42.55
2022-10-17T03:39:16.666Z,46.87
2022-10-17T03:42:20.131Z,50.65
2022-10-17T03:45:23.407Z,45.63
2022-10-17T03:48:29.525Z,39.27
2022-10-17T03:51:36.062Z,40.78
2022-10-17T03:54:40.301Z,42.15
2022-10-17T03:57:45.498Z,49.58
2022-10-17T04:00:49.560Z,49.00
2022-10-17T04:03:56.132Z,48.03
2022-10-17T04:06:59.474Z,42.90
2022-10-17T04:10:04.766Z,41.33
2022-10-17T04:13:08.550Z,47.22
2022-10-17T04:16:17.552Z,50.70
2022-10-17T04:19:21.938Z,51.97
2022-10-17T04:22:25.929Z,43.53
2022-10-17T04:25:32.212Z,43.90
2022-10-17T04:31:42.353Z,47.05
2022-10-17T04:34:50.196Z,49.22
2022-10-17T04:37:54.193Z,47.90
2022-10-17T04:41:00.150Z,46.28
2022-10-17T04:44:03.930Z,47.43
2022-10-17T04:47:08.418Z,47.35
2022-10-17T04:50:11.770Z,53.33
2022-10-17T04:53:15.998Z,47.05
2022-10-17T04:56:22.370Z,45.40
2022-10-17T04:59:25.932Z,45.45
2022-10-17T05:02:29.504Z,43.70
2022-10-17T05:05:33.320Z,54.33
2022-10-17T05:08:37.935Z,55.92
2022-10-17T05:11:43.433Z,58.13
2022-10-17T05:14:48.678Z,62.47
2022-10-17T05:17:55.416Z,58.53
2022-10-17T05:20:59.906Z,53.72
2022-10-17T05:24:08.794Z,57.53
2022-10-17T05:27:11.879Z,59.43
2022-10-17T05:30:17.149Z,59.10
2022-10-17T05:33:20.346Z,56.22
2022-10-17T05:36:24.500Z,58.80
2022-10-17T05:39:28.956Z,52.83
2022-10-17T05:42:33.156Z,61.08
2022-10-17T05:45:36.766Z,57.88
2022-10-17T05:48:40.937Z,55.63
2022-10-17T05:51:44.189Z,51.80
2022-10-17T05:54:48.012Z,58.95
2022-10-17T05:57:52.746Z,75.07
2022-10-17T06:01:01.730Z,59.78
2022-10-17T06:04:05.102Z,73.93
2022-10-17T06:07:08.424Z,65.53
2022-10-17T06:10:15.165Z,63.07
2022-10-17T06:13:18.836Z,47.33
2022-10-17T06:16:23.008Z,41.97
2022-10-17T06:19:26.268Z,36.83
2022-10-17T06:22:30.099Z,36.40
2022-10-17T06:25:33.930Z,36.78
2022-10-17T06:28:37.468Z,37.13
2022-10-17T06:31:40.788Z,35.42
2022-10-17T06:34:44.230Z,41.55
2022-10-17T06:37:47.639Z,37.33
2022-10-17T06:40:51.465Z,34.28
2022-10-17T06:43:56.698Z,35.22
2022-10-17T06:47:02.279Z,28.12
2022-10-17T06:50:05.677Z,30.83
2022-10-17T06:53:10.904Z,25.40
2022-10-17T06:56:14.883Z,26.60
2022-10-17T06:59:18.725Z,26.85
2022-10-17T07:02:24.413Z,23.23
2022-10-17T07:05:27.924Z,21.40
2022-10-17T07:08:31.549Z,20.67
2022-10-17T07:11:36.353Z,22.75
2022-10-17T07:14:39.446Z,25.08
2022-10-17T07:17:42.947Z,23.77
2022-10-17T07:20:54.973Z,25.12
2022-10-17T07:23:58.380Z,25.87
2022-10-17T07:27:01.860Z,24.27
2022-10-17T07:30:06.233Z,18.67
2022-10-17T07:33:10.207Z,19.92
2022-10-17T07:36:14.084Z,18.77
2022-10-17T07:39:17.154Z,18.73
2022-10-17T07:42:22.284Z,20.40
2022-10-17T07:45:27.770Z,16.95
2022-10-17T07:48:31.924Z,18.12
2022-10-17T07:51:36.145Z,19.02
2022-10-17T07:54:39.869Z,16.60
2022-10-17T07:57:43.288Z,20.23
2022-10-17T08:00:48.591Z,17.42
2022-10-17T08:03:52.333Z,18.37
2022-10-17T08:07:05.423Z,19.48
2022-10-17T08:10:17.722Z,15.33
2022-10-17T08:13:21.963Z,17.12
2022-10-17T08:16:25.250Z,16.92
2022-10-17T08:19:28.371Z,15.98
2022-10-17T08:22:32.544Z,20.35
2022-10-17T08:25:38.668Z,16.93
2022-10-17T08:28:42.523Z,15.07
2022-10-17T08:31:48.302Z,17.95
2022-10-17T08:34:54.266Z,15.68
2022-10-17T08:38:01.836Z,17.55
2022-10-17T08:41:13.812Z,15.83
2022-10-17T08:44:38.310Z,15.40
2022-10-17T08:47:49.939Z,12.30
2022-10-17T08:51:17.454Z,15.18
2022-10-17T08:54:26.312Z,15.23
2022-10-17T08:57:29.930Z,16.67
2022-10-17T09:00:36.119Z,17.27
2022-10-17T09:03:50.323Z,16.42
2022-10-17T09:07:17.495Z,14.63
2022-10-17T09:10:32.940Z,14.85
2022-10-17T09:14:03.671Z,23.00
2022-10-17T09:17:32.892Z,15.13
2022-10-17T09:20:45.794Z,15.85
2022-10-17T09:24:09.625Z,13.93
2022-10-17T09:27:28.400Z,21.98
2022-10-17T09:30:45.268Z,14.83
2022-10-17T09:33:54.920Z,17.60
2022-10-17T09:37:01.075Z,14.40
2022-10-17T09:40:09.101Z,14.25
2022-10-17T09:43:15.457Z,12.43
2022-10-17T09:46:33.783Z,12.13
2022-10-17T09:49:39.638Z,20.33
2022-10-17T09:52:48.820Z,17.30
2022-10-17T09:55:57.056Z,16.50
2022-10-17T09:59:01.612Z,12.37
2022-10-17T10:02:16.578Z,16.70
2022-10-17T10:05:21.756Z,13.43
2022-10-17T10:08:28.474Z,18.05
2022-10-17T10:11:56.378Z,12.52
2022-10-17T10:15:00.465Z,14.30
2022-10-17T10:18:04.486Z,18.23
2022-10-17T10:21:14.813Z,18.83
2022-10-17T10:24:19.458Z,17.33
2022-10-17T10:27:23.080Z,11.70
2022-10-17T10:30:30.175Z,17.42
2022-10-17T10:33:41.330Z,13.30
2022-10-17T10:36:54.449Z,15.52
2022-10-17T10:40:00.053Z,12.77
2022-10-17T10:43:05.708Z,15.40
2022-10-17T10:46:19.639Z,12.82
2022-10-17T10:49:31.650Z,15.93
2022-10-17T10:52:46.486Z,13.77
2022-10-17T10:56:02.404Z,10.77
2022-10-17T10:59:23.330Z,12.88
2022-10-17T11:02:33.812Z,10.85
2022-10-17T11:06:02.703Z,11.53
2022-10-17T11:09:43.581Z,10.30
2022-10-17T11:13:10.854Z,13.85
2022-10-17T11:16:40.442Z,9.82
2022-10-17T11:20:08.091Z,14.35
2022-10-17T11:23:21.633Z,8.17
2022-10-17T11:26:31.739Z,9.75
2022-10-17T11:29:40.446Z,10.35
2022-10-17T11:32:53.925Z,9.52
2022-10-17T11:36:03.466Z,10.05
2022-10-17T11:39:15.048Z,9.93
2022-10-17T11:43:00.569Z,13.77
2022-10-17T11:46:13.411Z,17.73
2022-10-17T11:49:21.940Z,6.70
2022-10-17T11:52:56.308Z,10.80
2022-10-17T11:56:01.341Z,9.30
2022-10-17T11:59:23.411Z,10.52
2022-10-17T12:02:47.524Z,14.45
2022-10-17T12:05:56.272Z,7.35
2022-10-17T12:09:20.674Z,8.88
2022-10-17T12:12:30.215Z,9.40
2022-10-17T12:15:34.405Z,8.82
2022-10-17T12:18:39.494Z,10.70
2022-10-17T12:21:54.695Z,11.70
2022-10-17T12:25:03.055Z,8.90
2022-10-17T12:28:27.976Z,13.53
2022-10-17T12:31:34.129Z,11.98
2022-10-17T12:34:39.420Z,11.25
2022-10-17T12:37:44.218Z,12.95
2022-10-17T12:40:52.741Z,14.80
2022-10-17T12:43:56.128Z,9.50
2022-10-17T12:47:19.864Z,10.35
2022-10-17T12:51:23.791Z,8.23
2022-10-17T12:54:26.291Z,8.43
2022-10-17T12:58:05.184Z,22.45
2022-10-17T13:01:34.469Z,12.87
2022-10-17T13:04:38.053Z,8.05
2022-10-17T13:07:44.547Z,8.50
2022-10-17T13:10:52.548Z,9.32
2022-10-17T13:13:59.203Z,11.38
2022-10-17T13:17:06.123Z,11.47
2022-10-17T13:20:27.536Z,9.65
2022-10-17T13:23:38.103Z,13.65
2022-10-17T13:26:45.997Z,12.77
2022-10-17T13:29:49.722Z,17.95
2022-10-17T13:32:54.633Z,8.50
2022-10-17T13:36:01.075Z,10.43
2022-10-17T13:39:12.310Z,10.52
2022-10-17T13:42:40.670Z,9.57
2022-10-17T13:45:50.709Z,9.68
2022-10-17T13:48:54.446Z,10.47
2022-10-17T13:51:59.500Z,13.62
2022-10-17T13:55:11.754Z,16.70
2022-10-17T13:58:17.997Z,13.57
2022-10-17T14:01:22.394Z,23.90
2022-10-17T14:04:26.988Z,9.27
2022-10-17T14:08:05.674Z,12.85
2022-10-17T14:11:02.184Z,12.50
2022-10-17T14:14:20.486Z,14.35
2022-10-17T14:17:29.673Z,11.23
2022-10-17T14:21:08.185Z,9.53
2022-10-17T14:24:28.396Z,13.88
2022-10-17T14:27:55.522Z,15.95
2022-10-17T14:31:19.846Z,14.38
2022-10-17T14:34:29.132Z,13.75
2022-10-17T14:37:50.816Z,14.43
2022-10-17T14:41:29.666Z,13.73
2022-10-17T14:44:29.237Z,14.82
2022-10-17T14:47:43.162Z,14.55
2022-10-17T14:51:15.010Z,15.50
2022-10-17T14:54:30.361Z,15.00
2022-10-17T14:57:33.565Z,13.20
2022-10-17T15:00:36.593Z,16.95
2022-10-17T15:03:40.086Z,11.50
2022-10-17T15:06:43.633Z,15.80
2022-10-17T15:09:49.049Z,13.13
2022-10-17T15:12:59.167Z,16.45
2022-10-17T15:16:19.623Z,19.65
2022-10-17T15:19:22.712Z,21.73
2022-10-17T15:22:26.503Z,16.83
2022-10-17T15:25:31.408Z,26.13
2022-10-17T15:28:35.052Z,36.90
2022-10-17T15:31:38.117Z,42.17
2022-10-17T15:34:41.774Z,56.53
2022-10-17T15:37:46.880Z,33.65
2022-10-17T15:40:52.134Z,33.93
2022-10-17T15:43:55.421Z,24.95
2022-10-17T15:46:58.976Z,35.20
2022-10-17T15:50:04.000Z,26.15
2022-10-17T15:53:11.927Z,23.10
2022-10-17T15:56:36.359Z,33.57
2022-10-17T15:59:39.715Z,32.22
2022-10-17T16:02:43.023Z,47.08
2022-10-17T16:05:46.435Z,30.00
2022-10-17T16:08:50.312Z,33.92
2022-10-17T16:11:53.710Z,39.30
2022-10-17T16:14:57.684Z,33.95
2022-10-17T16:18:04.252Z,37.13
2022-10-17T16:21:14.084Z,32.97
2022-10-17T16:24:17.955Z,36.72
2022-10-17T16:27:21.253Z,29.17
2022-10-17T16:30:27.861Z,37.85
2022-10-17T16:33:31.586Z,43.95
2022-10-17T16:36:35.593Z,30.85
2022-10-17T16:39:38.838Z,36.13
2022-10-17T16:42:43.409Z,41.90
2022-10-17T16:45:46.564Z,34.78
2022-10-17T16:48:51.744Z,31.58
2022-10-17T16:51:56.650Z,38.83
2022-10-17T16:55:00.055Z,40.10
2022-10-17T16:58:04.362Z,61.03
2022-10-17T17:01:11.426Z,46.13
2022-10-17T17:04:15.503Z,64.78
2022-10-17T17:07:20.141Z,74.85
2022-10-17T17:10:23.470Z,95.18
2022-10-17T17:13:28.825Z,79.87
2022-10-17T17:16:34.618Z,69.32
2022-10-17T17:19:38.613Z,58.40
2022-10-17T17:22:42.522Z,57.65
2022-10-17T17:25:46.497Z,47.97
2022-10-17T17:28:51.215Z,43.03
2022-10-17T17:31:55.327Z,60.85
2022-10-17T17:34:59.043Z,59.10
2022-10-17T17:38:03.885Z,44.92
2022-10-17T17:41:08.292Z,42.80
2022-10-17T17:44:16.597Z,38.07
2022-10-17T17:47:20.857Z,41.35
2022-10-17T17:50:25.227Z,46.22
2022-10-17T17:53:29.467Z,54.38
2022-10-17T17:56:33.687Z,38.38
2022-10-17T17:59:39.007Z,38.80
2022-10-17T18:02:44.444Z,47.80
2022-10-17T18:05:49.456Z,44.03
2022-10-17T18:08:56.946Z,49.17
2022-10-17T18:12:02.368Z,45.45
2022-10-17T18:15:07.011Z,41.33
2022-10-17T18:18:11.610Z,45.42
2022-10-17T18:21:15.810Z,43.42
2022-10-17T18:24:19.659Z,53.55
2022-10-17T18:27:23.980Z,61.47
2022-10-17T18:30:29.943Z,63.77
2022-10-17T18:33:37.213Z,54.00
2022-10-17T18:36:41.418Z,48.50
2022-10-17T18:39:45.699Z,56.13
2022-10-17T18:42:49.658Z,46.33
2022-10-17T18:45:57.622Z,60.22
2022-10-17T18:49:02.244Z,50.35
2022-10-17T18:52:06.428Z,59.03
2022-10-17T18:55:11.349Z,59.60
2022-10-17T18:58:15.305Z,71.40
2022-10-17T19:01:25.774Z,58.03
2022-10-17T19:04:30.316Z,64.07
2022-10-17T19:07:34.558Z,65.32
2022-10-17T19:11:02.831Z,64.72
2022-10-17T19:14:13.540Z,67.87
2022-10-17T19:17:17.714Z,71.82
2022-10-17T19:20:21.789Z,75.30
2022-10-17T19:23:25.602Z,69.78
2022-10-17T19:26:31.191Z,78.95
2022-10-17T19:29:34.817Z,83.00
2022-10-17T19:32:39.050Z,77.53
2022-10-17T19:35:42.384Z,74.72
2022-10-17T19:38:47.394Z,70.35
2022-10-17T19:41:51.398Z,77.30
2022-10-17T19:44:55.069Z,74.97
2022-10-17T19:47:58.958Z,73.37
2022-10-17T19:51:03.876Z,84.78
2022-10-17T19:54:07.385Z,75.75
2022-10-17T19:57:11.166Z,72.72
2022-10-17T20:00:15.541Z,68.07
2022-10-17T20:03:20.351Z,58.55
2022-10-17T20:06:24.225Z,65.30
2022-10-17T20:09:27.862Z,67.93
2022-10-17T20:12:32.441Z,63.60
2022-10-17T20:15:37.926Z,73.10
2022-10-17T20:18:43.338Z,66.47
2022-10-17T20:21:47.209Z,70.20
2022-10-17T20:24:50.578Z,74.30
2022-10-17T20:27:54.394Z,71.72
2022-10-17T20:30:59.340Z,69.37
2022-10-17T20:34:03.678Z,62.85
2022-10-17T20:37:07.218Z,71.90
2022-10-17T20:40:33.599Z,70.90
2022-10-17T20:43:35.127Z,71.93
2022-10-17T20:46:44.917Z,62.03
2022-10-17T20:49:51.913Z,65.37
2022-10-17T20:53:05.374Z,63.03
2022-10-17T20:56:26.800Z,66.00
2022-10-17T20:59:30.703Z,71.22
2022-10-17T21:02:33.872Z,64.75
2022-10-17T21:05:40.491Z,58.13
2022-10-17T21:08:45.732Z,67.20
2022-10-17T21:11:55.739Z,72.72
2022-10-17T21:15:09.389Z,66.87
2022-10-17T21:18:12.688Z,69.35
2022-10-17T21:21:21.899Z,73.13
2022-10-17T21:24:25.181Z,66.00
2022-10-17T21:27:28.320Z,66.97
2022-10-17T21:30:32.012Z,66.75
2022-10-17T21:33:35.213Z,65.30
2022-10-17T21:36:38.865Z,68.57
2022-10-17T21:39:42.041Z,73.22
2022-10-17T21:42:46.105Z,64.25
2022-10-17T21:45:49.017Z,68.10
2022-10-17T21:48:53.347Z,72.30
2022-10-17T21:51:56.329Z,68.40
2022-10-17T21:54:59.575Z,68.10
2022-10-17T21:58:05.106Z,64.37
2022-10-17T22:01:17.222Z,63.13
2022-10-17T22:04:21.552Z,65.12
2022-10-17T22:07:24.709Z,55.05
2022-10-17T22:10:29.234Z,51.95
2022-10-17T22:13:32.408Z,55.75
2022-10-17T22:16:35.733Z,56.80
2022-10-17T22:19:38.642Z,54.70
2022-10-17T22:22:42.183Z,58.78
2022-10-17T22:25:56.611Z,50.70
2022-10-17T22:29:00.282Z,47.95
2022-10-17T22:32:03.437Z,51.47
2022-10-17T22:35:07.450Z,51.47
2022-10-17T22:38:10.827Z,49.85
2022-10-17T22:41:14.213Z,51.10
2022-10-17T22:44:17.384Z,51.20
2022-10-17T22:47:20.616Z,50.53
2022-10-17T22:50:24.555Z,47.35
2022-10-17T22:53:29.795Z,51.55
2022-10-17T22:56:32.979Z,53.40
2022-10-17T22:59:36.228Z,50.97
2022-10-17T23:02:41.093Z,52.05
2022-10-17T23:05:45.056Z,52.03
2022-10-17T23:08:49.057Z,51.67
2022-10-17T23:11:52.291Z,49.65
2022-10-17T23:14:55.306Z,49.67
2022-10-17T23:17:59.787Z,48.60
2022-10-17T23:21:03.184Z,48.45
2022-10-17T23:24:06.794Z,51.10
2022-10-17T23:27:09.808Z,44.00
2022-10-17T23:30:13.589Z,53.57
2022-10-17T23:33:17.043Z,56.47
2022-10-17T23:36:22.087Z,55.78
2022-10-17T23:39:25.416Z,52.10
2022-10-17T23:42:28.771Z,52.10
2022-10-17T23:45:36.122Z,45.65
2022-10-17T23:48:41.054Z,52.35
2022-10-17T23:51:44.070Z,54.07
2022-10-17T23:54:47.570Z,48.47
2022-10-17T23:57:53.276Z,50.50
